Time;durP1;ratioP1;P1;durP2;ratioP2;P2;SDS_P1;SDS_P2;PMS_P1;PMS_P2;Temp;Humidity;BMP_temperature;BMP_pressure;BME280_temperature;BME280_humidity;BME280_pressure;Samples;Min_cycle;Max_cycle;Signal;HPM_P1;HPM_P2
2023/03/01 00:00:07;;;;;;;15.80;9.45;;;-0.10;1.00;;;;;;5082771;28;20253;-74
2023/03/01 00:02:36;;;;;;;17.58;9.65;;;-0.10;1.00;;;;;;5058706;28;20525;-74
2023/03/01 00:05:07;;;;;;;15.88;9.48;;;-0.10;1.00;;;;;;5058646;28;20266;-74
2023/03/01 00:07:35;;;;;;;17.90;9.85;;;-0.10;1.00;;;;;;5084152;28;20193;-74
2023/03/01 00:10:01;;;;;;;14.20;9.02;;;-0.10;1.00;;;;;;5081357;28;20183;-74
2023/03/01 00:12:27;;;;;;;17.90;9.67;;;-0.10;1.00;;;;;;5058448;28;20179;-74
2023/03/01 00:14:59;;;;;;;14.70;9.03;;;-0.10;1.00;;;;;;5084653;28;20470;-74
2023/03/01 00:17:25;;;;;;;14.63;9.05;;;-0.10;1.00;;;;;;5084333;28;20462;-74
2023/03/01 00:19:50;;;;;;;14.23;9.37;;;-0.10;1.00;;;;;;5079781;28;20187;-74
2023/03/01 00:22:17;;;;;;;17.53;9.90;;;0.00;1.00;;;;;;5076357;28;20182;-74
2023/03/01 00:31:29;;;;;;;19.23;10.55;;;0.00;1.00;;;;;;5060563;28;20217;-80
2023/03/01 00:47:22;;;;;;;16.00;10.48;;;-0.10;1.00;;;;;;5062324;28;20225;-80
2023/03/01 00:49:48;;;;;;;18.83;10.60;;;-0.10;1.00;;;;;;5067981;28;20269;-80
2023/03/01 00:53:00;;;;;;;16.67;10.30;;;-0.10;1.00;;;;;;5062575;28;20186;-79
2023/03/01 00:58:47;;;;;;;20.95;9.23;;;-0.20;1.00;;;;;;5075919;28;20546;-80
2023/03/01 01:07:56;;;;;;;16.05;10.15;;;-0.30;1.00;;;;;;5063252;28;20685;-80
2023/03/01 01:11:05;;;;;;;15.43;10.17;;;-0.30;1.00;;;;;;5057413;28;20203;-80
2023/03/01 01:20:14;;;;;;;18.58;10.43;;;-0.40;1.00;;;;;;5075408;28;20210;-80
2023/03/01 01:23:29;;;;;;;18.20;11.17;;;-0.30;1.00;;;;;;5075563;28;20161;-80
2023/03/01 01:25:54;;;;;;;18.25;11.05;;;-0.30;1.00;;;;;;5078129;28;20167;-74
2023/03/01 01:28:23;;;;;;;16.50;10.10;;;-0.20;1.00;;;;;;5072736;28;20179;-74
2023/03/01 01:30:49;;;;;;;16.35;10.85;;;-0.20;1.00;;;;;;5075983;28;20640;-74
2023/03/01 01:33:17;;;;;;;15.30;9.90;;;-0.10;1.00;;;;;;5075297;28;20266;-74
2023/03/01 01:35:53;;;;;;;15.73;10.88;;;-0.10;1.00;;;;;;5075229;28;20642;-74
2023/03/01 01:38:21;;;;;;;15.90;10.15;;;-0.10;1.00;;;;;;5080204;28;20597;-74
2023/03/01 01:40:47;;;;;;;18.42;10.13;;;0.00;1.00;;;;;;5075469;28;20164;-74
2023/03/01 01:43:29;;;;;;;17.25;9.95;;;0.00;1.00;;;;;;5073886;28;20213;-75
2023/03/01 01:46:01;;;;;;;14.85;9.55;;;0.00;1.00;;;;;;5045338;28;20647;-74
2023/03/01 01:48:59;;;;;;;15.35;10.40;;;0.10;1.00;;;;;;5086347;28;20195;-74
2023/03/01 01:51:37;;;;;;;18.88;10.80;;;0.10;1.00;;;;;;5072183;28;20214;-74
2023/03/01 01:54:18;;;;;;;14.52;9.85;;;0.10;1.00;;;;;;5072919;28;20206;-80
2023/03/01 02:00:13;;;;;;;19.05;10.15;;;0.20;1.00;;;;;;5054620;28;20266;-80
2023/03/01 02:06:10;;;;;;;20.42;10.35;;;0.20;1.00;;;;;;5074563;28;20237;-80
2023/03/01 02:08:50;;;;;;;27.85;9.73;;;0.30;1.00;;;;;;5074002;28;20178;-79
2023/03/01 02:11:25;;;;;;;16.50;10.20;;;0.30;1.00;;;;;;5069427;28;20206;-74
2023/03/01 02:13:52;;;;;;;17.23;10.32;;;0.40;1.00;;;;;;5081542;28;20254;-74
2023/03/01 02:16:17;;;;;;;15.25;9.73;;;0.40;1.00;;;;;;5061827;28;20668;-74
2023/03/01 02:18:44;;;;;;;17.00;10.23;;;0.40;1.00;;;;;;5080105;28;20175;-74
2023/03/01 02:21:39;;;;;;;16.65;10.27;;;0.40;1.00;;;;;;5069783;28;20252;-74
2023/03/01 02:24:35;;;;;;;20.42;10.43;;;0.40;1.00;;;;;;5012606;28;20263;-74
2023/03/01 02:27:05;;;;;;;15.68;10.50;;;0.40;1.00;;;;;;5011785;28;20241;-74
2023/03/01 02:29:35;;;;;;;15.18;10.48;;;0.40;1.00;;;;;;5003522;28;20193;-74
2023/03/01 02:32:03;;;;;;;17.23;10.30;;;0.40;1.00;;;;;;5008690;28;20173;-74
2023/03/01 02:34:31;;;;;;;17.30;10.30;;;0.40;1.00;;;;;;5005559;28;20231;-74
2023/03/01 02:37:16;;;;;;;19.80;10.65;;;0.40;1.00;;;;;;4999369;28;20209;-75
2023/03/01 02:43:05;;;;;;;17.65;10.98;;;0.40;1.00;;;;;;4992083;28;20212;-80
2023/03/01 02:49:18;;;;;;;17.80;10.80;;;0.40;1.00;;;;;;5002061;28;20236;-80
2023/03/01 02:55:29;;;;;;;16.60;11.00;;;0.40;1.00;;;;;;4997466;28;20256;-80
2023/03/01 03:01:41;;;;;;;19.90;11.73;;;0.40;1.00;;;;;;5033961;28;20339;-80
2023/03/01 03:07:44;;;;;;;15.80;10.18;;;0.40;1.00;;;;;;5073462;28;20209;-79
2023/03/01 03:10:31;;;;;;;18.38;11.50;;;0.30;1.00;;;;;;5065067;28;20253;-74
2023/03/01 03:12:59;;;;;;;17.73;11.27;;;0.40;1.00;;;;;;5073804;28;20186;-74
2023/03/01 03:15:30;;;;;;;17.75;10.55;;;0.30;1.00;;;;;;5073138;28;20238;-75
2023/03/01 03:17:57;;;;;;;19.20;11.15;;;0.30;1.00;;;;;;5073413;28;20658;-74
2023/03/01 03:20:39;;;;;;;20.65;11.25;;;0.30;1.00;;;;;;5065516;28;20626;-74
2023/03/01 03:23:05;;;;;;;17.90;11.20;;;0.40;1.00;;;;;;5060559;28;20702;-74
2023/03/01 03:25:31;;;;;;;18.10;11.00;;;0.40;1.00;;;;;;5072641;28;20175;-74
2023/03/01 03:27:59;;;;;;;19.30;11.30;;;0.50;1.00;;;;;;5066004;28;20240;-74
2023/03/01 03:30:31;;;;;;;19.67;11.27;;;0.50;1.00;;;;;;5091819;28;20192;-74
2023/03/01 03:32:58;;;;;;;17.85;10.20;;;0.50;1.00;;;;;;5083451;28;20488;-74
2023/03/01 03:35:37;;;;;;;17.92;10.90;;;0.50;1.00;;;;;;5078264;28;20160;-74
2023/03/01 03:38:29;;;;;;;20.85;11.88;;;0.50;1.00;;;;;;5073438;28;20510;-75
2023/03/01 03:47:38;;;;;;;18.92;11.30;;;0.50;1.00;;;;;;5065107;28;20210;-80
2023/03/01 03:50:04;;;;;;;20.63;11.53;;;0.40;1.00;;;;;;5058351;28;20607;-79
2023/03/01 04:09:14;;;;;;;19.27;11.48;;;0.30;1.00;;;;;;5069916;28;20217;-80
2023/03/01 04:11:47;;;;;;;18.33;11.67;;;0.20;1.00;;;;;;5075580;28;20155;-74
2023/03/01 04:14:13;;;;;;;18.45;11.30;;;0.20;1.00;;;;;;5074049;28;20210;-75
2023/03/01 04:16:38;;;;;;;20.57;12.30;;;0.20;1.00;;;;;;5076724;28;20562;-74
2023/03/01 04:19:06;;;;;;;19.93;10.87;;;0.20;1.00;;;;;;5074272;28;20174;-74
2023/03/01 04:21:32;;;;;;;17.95;11.10;;;0.30;1.00;;;;;;5068689;28;20210;-74
2023/03/01 04:23:57;;;;;;;21.30;11.37;;;0.30;1.00;;;;;;5070706;28;20234;-75
2023/03/01 04:26:35;;;;;;;17.77;11.17;;;0.40;1.00;;;;;;5076764;28;20424;-74
2023/03/01 04:29:01;;;;;;;19.70;11.57;;;0.30;1.00;;;;;;5076520;28;20466;-74
2023/03/01 04:31:29;;;;;;;20.07;12.00;;;0.30;1.00;;;;;;5074012;28;20183;-74
2023/03/01 04:33:59;;;;;;;20.58;11.30;;;0.30;1.00;;;;;;5076176;28;20733;-74
2023/03/01 04:36:29;;;;;;;20.15;11.82;;;0.30;1.00;;;;;;5082961;28;20513;-74
2023/03/01 04:39:11;;;;;;;18.67;11.30;;;0.30;1.00;;;;;;5059431;28;20521;-74
2023/03/01 04:48:21;;;;;;;20.85;12.52;;;0.10;1.00;;;;;;5076258;28;20225;-80
2023/03/01 04:54:47;;;;;;;19.15;11.25;;;0.10;1.00;;;;;;5074480;28;20711;-80
2023/03/01 05:00:34;;;;;;;19.15;12.00;;;0.10;1.00;;;;;;5065934;28;20165;-80
2023/03/01 05:06:23;;;;;;;23.30;11.73;;;0.00;1.00;;;;;;5074143;28;20244;-79
2023/03/01 05:12:37;;;;;;;21.13;13.20;;;0.10;1.00;;;;;;5054959;28;20195;-80
2023/03/01 05:15:11;;;;;;;19.80;11.95;;;0.10;1.00;;;;;;5060964;28;20167;-80
2023/03/01 05:18:25;;;;;;;20.85;11.88;;;0.10;1.00;;;;;;5074214;28;20190;-81
2023/03/01 05:21:08;;;;;;;19.75;10.60;;;0.20;1.00;;;;;;5068747;28;20182;-81
2023/03/01 05:27:35;;;;;;;21.35;12.93;;;0.10;1.00;;;;;;5074620;28;20228;-85
2023/03/01 05:33:47;;;;;;;22.00;12.70;;;0.10;1.00;;;;;;5072169;28;20190;-76
2023/03/01 05:36:23;;;;;;;21.20;12.10;;;0.10;1.00;;;;;;5049924;28;20669;-76
2023/03/01 05:38:59;;;;;;;19.10;12.50;;;0.10;1.00;;;;;;5078335;28;20187;-76
2023/03/01 05:42:00;;;;;;;20.35;11.93;;;0.10;1.00;;;;;;5074320;28;20183;-75
2023/03/01 05:47:49;;;;;;;22.73;13.00;;;0.10;1.00;;;;;;5054277;28;20182;-76
2023/03/01 05:50:22;;;;;;;18.60;11.53;;;0.20;1.00;;;;;;5037190;28;1122287;-76
2023/03/01 05:53:26;;;;;;;18.13;11.50;;;0.10;1.00;;;;;;5074843;28;20178;-76
2023/03/01 05:55:52;;;;;;;30.02;13.38;;;0.10;1.00;;;;;;5070535;28;20285;-76
2023/03/01 05:58:24;;;;;;;24.50;12.90;;;0.10;1.00;;;;;;5077308;28;20262;-74
2023/03/01 06:00:53;;;;;;;20.50;11.95;;;0.10;1.00;;;;;;5073048;28;20187;-74
2023/03/01 06:03:19;;;;;;;21.00;12.20;;;0.10;1.00;;;;;;5055829;28;20203;-74
2023/03/01 06:05:45;;;;;;;24.43;12.50;;;0.10;1.00;;;;;;5069044;28;20533;-74
2023/03/01 06:08:11;;;;;;;26.50;12.30;;;0.10;1.00;;;;;;5073323;28;20195;-73
2023/03/01 06:10:37;;;;;;;23.67;12.80;;;0.00;1.00;;;;;;5075987;28;20567;-74
2023/03/01 06:13:05;;;;;;;20.17;11.80;;;0.00;1.00;;;;;;5066638;28;20250;-74
2023/03/01 06:15:31;;;;;;;25.17;12.52;;;0.10;1.00;;;;;;5068517;28;20175;-73
2023/03/01 06:17:57;;;;;;;23.53;12.53;;;0.10;1.00;;;;;;5073973;28;20178;-74
2023/03/01 06:20:25;;;;;;;23.13;11.60;;;0.00;1.00;;;;;;5066287;28;20173;-74
2023/03/01 06:33:00;;;;;;;21.17;12.80;;;0.10;1.00;;;;;;5071459;28;20323;-84
2023/03/01 06:42:11;;;;;;;20.42;12.50;;;0.20;1.00;;;;;;5070115;28;20206;-84
2023/03/01 06:48:41;;;;;;;33.25;12.20;;;0.30;1.00;;;;;;5074400;28;20266;-85
2023/03/01 06:54:29;;;;;;;19.80;12.90;;;0.50;1.00;;;;;;5064891;28;20190;-84
2023/03/01 07:00:17;;;;;;;19.55;12.05;;;0.60;1.00;;;;;;5073200;28;20639;-84
2023/03/01 07:06:59;;;;;;;22.23;12.13;;;0.90;1.00;;;;;;5065395;28;20238;-83
2023/03/01 07:12:47;;;;;;;19.80;12.00;;;1.20;1.00;;;;;;5072892;28;20708;-84
2023/03/01 07:18:35;;;;;;;20.13;12.07;;;1.40;1.00;;;;;;5066292;28;20321;-82
2023/03/01 07:21:07;;;;;;;20.50;11.50;;;1.50;1.00;;;;;;5073320;28;20231;-82
2023/03/01 07:24:17;;;;;;;19.73;11.80;;;1.50;1.00;;;;;;5054856;28;20452;-82
2023/03/01 07:26:51;;;;;;;18.00;11.05;;;1.50;1.00;;;;;;5037004;28;20240;-82
2023/03/01 07:29:18;;;;;;;22.50;11.80;;;1.50;1.00;;;;;;5045862;28;20667;-80
2023/03/01 07:49:13;;;;;;;20.00;11.70;;;1.40;1.00;;;;;;5077357;28;20189;-82
2023/03/01 07:51:39;;;;;;;21.83;11.07;;;1.40;1.00;;;;;;5059101;28;20258;-83
2023/03/01 07:57:29;;;;;;;23.00;12.00;;;1.30;1.00;;;;;;5069437;28;20430;-83
2023/03/01 08:00:17;;;;;;;22.75;12.48;;;1.40;1.00;;;;;;5045167;28;20785;-82
2023/03/01 08:06:53;;;;;;;19.25;11.25;;;1.50;1.00;;;;;;5068477;28;20238;-82
2023/03/01 08:16:29;;;;;;;19.08;12.07;;;1.60;1.00;;;;;;5060076;28;20582;-80
2023/03/01 08:22:16;;;;;;;21.13;11.68;;;1.90;1.00;;;;;;5060201;28;20213;-79
2023/03/01 08:28:29;;;;;;;19.50;11.02;;;2.10;1.00;;;;;;5077135;28;20204;-80
2023/03/01 08:31:30;;;;;;;31.08;12.00;;;2.20;1.00;;;;;;5070809;28;20175;-79
2023/03/01 08:33:59;;;;;;;22.73;12.13;;;2.30;1.00;;;;;;4991473;28;20307;-80
2023/03/01 08:36:44;;;;;;;24.52;12.50;;;2.40;1.00;;;;;;4990657;28;20184;-81
2023/03/01 08:39:15;;;;;;;19.75;11.85;;;2.60;1.00;;;;;;4993797;28;20661;-80
2023/03/01 08:49:13;;;;;;;16.73;8.27;;;2.90;1.00;;;;;;4996217;28;20652;-80
2023/03/01 08:51:43;;;;;;;20.65;12.02;;;2.90;1.00;;;;;;4997181;28;20599;-80
2023/03/01 08:57:47;;;;;;;22.20;12.20;;;3.00;1.00;;;;;;4993652;28;20613;-80
2023/03/01 09:00:35;;;;;;;20.35;11.43;;;3.10;1.00;;;;;;4994375;28;20661;-80
2023/03/01 09:03:11;;;;;;;22.23;12.70;;;3.10;1.00;;;;;;4990047;28;20618;-80
2023/03/01 09:06:17;;;;;;;17.88;8.23;;;3.20;1.00;;;;;;4993352;28;20188;-82
2023/03/01 09:08:54;;;;;;;16.58;8.90;;;3.30;1.00;;;;;;4978015;28;20186;-80
2023/03/01 09:11:59;;;;;;;16.15;9.00;;;3.40;1.00;;;;;;5060401;28;20183;-79
2023/03/01 09:15:17;;;;;;;21.83;10.70;;;3.50;1.00;;;;;;5056895;28;20198;-80
2023/03/01 09:17:47;;;;;;;11.45;5.85;;;3.60;1.00;;;;;;5059014;28;20183;-76
2023/03/01 09:20:23;;;;;;;16.75;9.68;;;3.60;1.00;;;;;;5077161;28;20183;-75
2023/03/01 09:22:49;;;;;;;19.57;9.90;;;3.70;1.00;;;;;;5081025;28;20167;-75
2023/03/01 09:25:47;;;;;;;20.80;9.20;;;3.80;1.00;;;;;;5075384;28;20456;-75
2023/03/01 09:28:13;;;;;;;21.00;10.05;;;3.90;1.00;;;;;;5074947;28;20188;-75
2023/03/01 09:30:47;;;;;;;17.27;8.80;;;3.90;1.00;;;;;;5075677;28;20163;-74
2023/03/01 09:33:35;;;;;;;19.50;9.43;;;4.00;1.00;;;;;;5068631;28;20637;-74
2023/03/01 09:36:05;;;;;;;16.77;8.57;;;4.00;1.00;;;;;;5064627;28;20229;-74
2023/03/01 09:38:35;;;;;;;18.70;9.65;;;4.00;1.00;;;;;;5073212;28;20175;-74
2023/03/01 09:41:26;;;;;;;16.33;9.40;;;4.00;1.00;;;;;;5081585;28;20210;-74
2023/03/01 09:43:59;;;;;;;19.33;10.73;;;4.10;1.00;;;;;;5070462;28;20450;-75
2023/03/01 09:46:26;;;;;;;20.00;8.73;;;4.20;1.00;;;;;;5089686;28;20420;-76
2023/03/01 09:49:31;;;;;;;17.47;9.80;;;4.30;1.00;;;;;;5075431;28;20439;-75
2023/03/01 09:52:21;;;;;;;16.90;10.13;;;4.40;1.00;;;;;;5056518;28;20783;-75
2023/03/01 09:55:13;;;;;;;23.13;10.57;;;4.50;1.00;;;;;;5074340;28;20425;-75
2023/03/01 09:58:02;;;;;;;16.00;8.10;;;4.50;1.00;;;;;;5075017;28;20398;-75
2023/03/01 10:01:09;;;;;;;22.73;9.60;;;4.50;1.00;;;;;;5074610;28;20405;-75
2023/03/01 10:04:08;;;;;;;25.83;11.80;;;4.60;1.00;;;;;;4993448;28;20467;-80
2023/03/01 10:06:56;;;;;;;21.93;10.30;;;4.70;1.00;;;;;;4994445;28;20436;-80
2023/03/01 10:13:14;;;;;;;23.30;11.43;;;5.00;1.00;;;;;;4992383;28;20523;-80
2023/03/01 10:16:23;;;;;;;15.03;8.83;;;5.10;1.00;;;;;;4992711;28;20986;-80
2023/03/01 10:19:03;;;;;;;21.00;11.57;;;5.30;1.00;;;;;;4995656;28;20431;-75
2023/03/01 10:21:31;;;;;;;17.67;10.83;;;5.40;1.00;;;;;;4994125;28;20555;-74
2023/03/01 10:24:12;;;;;;;19.63;11.30;;;5.50;1.00;;;;;;4992525;28;20525;-75
2023/03/01 10:26:48;;;;;;;18.13;10.33;;;5.60;1.00;;;;;;4993201;28;20425;-75
2023/03/01 10:29:23;;;;;;;24.27;11.87;;;5.50;1.00;;;;;;5005801;28;20741;-75
2023/03/01 10:32:00;;;;;;;17.70;9.53;;;5.60;1.00;;;;;;4988082;28;20448;-80
2023/03/01 10:38:17;;;;;;;21.97;11.27;;;5.70;1.00;;;;;;4973310;28;20393;-80
2023/03/01 10:44:05;;;;;;;19.43;10.03;;;6.00;1.00;;;;;;5073550;28;20592;-80
2023/03/01 10:47:24;;;;;;;22.47;10.60;;;6.10;1.00;;;;;;5056099;28;20498;-80
2023/03/01 10:50:05;;;;;;;20.00;8.57;;;6.10;1.00;;;;;;5069759;28;20441;-81
2023/03/01 10:52:40;;;;;;;20.00;10.73;;;6.10;1.00;;;;;;5073199;28;20428;-80
2023/03/01 10:55:59;;;;;;;21.90;11.40;;;6.10;1.00;;;;;;5073113;28;20443;-81
2023/03/01 11:02:03;;;;;;;25.47;12.07;;;6.20;1.00;;;;;;5067132;28;20416;-80
2023/03/01 11:08:29;;;;;;;22.23;10.23;;;6.40;1.00;;;;;;5069256;28;20404;-80
2023/03/01 11:17:43;;;;;;;15.10;9.37;;;6.70;1.00;;;;;;5066848;28;20459;-75
2023/03/01 11:20:24;;;;;;;24.37;11.70;;;6.90;1.00;;;;;;5058953;28;20405;-75
2023/03/01 11:22:58;;;;;;;18.60;10.63;;;7.00;1.00;;;;;;5071676;28;20421;-75
2023/03/01 11:25:28;;;;;;;17.30;10.43;;;7.10;1.00;;;;;;5068978;28;20515;-75
2023/03/01 11:28:02;;;;;;;19.03;10.63;;;7.10;1.00;;;;;;5064939;28;20918;-75
2023/03/01 11:30:51;;;;;;;19.73;11.40;;;7.10;1.00;;;;;;5067120;28;20426;-75
2023/03/01 11:40:17;;;;;;;17.23;9.43;;;7.30;1.00;;;;;;5050634;28;20431;-80
2023/03/01 11:46:08;;;;;;;18.03;9.40;;;7.50;1.00;;;;;;5073517;28;20978;-80
2023/03/01 11:49:15;;;;;;;16.80;9.80;;;7.50;1.00;;;;;;5069810;28;20429;-75
2023/03/01 11:52:18;;;;;;;15.90;9.10;;;7.70;1.00;;;;;;5067680;28;20523;-75
2023/03/01 11:54:53;;;;;;;17.70;8.73;;;7.80;1.00;;;;;;5065412;28;20852;-75
2023/03/01 11:57:49;;;;;;;11.67;6.90;;;7.90;1.00;;;;;;5071059;28;20481;-75
2023/03/01 12:00:48;;;;;;;13.90;8.30;;;8.00;1.00;;;;;;5067949;28;20471;-75
2023/03/01 12:03:52;;;;;;;14.00;8.60;;;8.00;1.00;;;;;;5053017;28;20790;-80
2023/03/01 12:07:11;;;;;;;15.73;8.80;;;8.10;1.00;;;;;;4990018;28;20506;-81
2023/03/01 12:10:29;;;;;;;17.50;8.70;;;8.30;1.00;;;;;;5008560;28;20458;-80
2023/03/01 12:13:35;;;;;;;19.07;9.20;;;8.30;1.00;;;;;;5006395;28;20463;-80
2023/03/01 12:20:15;;;;;;;18.57;8.77;;;8.20;1.00;;;;;;4995456;28;20463;-75
2023/03/01 12:23:00;;;;;;;13.77;8.80;;;8.30;1.00;;;;;;4963286;28;20989;-75
2023/03/01 12:26:07;;;;;;;14.40;7.67;;;8.40;1.00;;;;;;4965179;28;20477;-74
2023/03/01 12:29:01;;;;;;;14.80;8.10;;;8.40;1.00;;;;;;4913240;29;20987;-75
2023/03/01 12:31:52;;;;;;;18.40;8.83;;;8.40;1.00;;;;;;4915779;29;20472;-75
2023/03/01 12:37:55;;;;;;;13.07;7.43;;;8.70;1.00;;;;;;4918916;29;20473;-80
2023/03/01 12:40:57;;;;;;;13.67;6.73;;;8.80;1.00;;;;;;4921837;29;20444;-80
2023/03/01 12:46:58;;;;;;;12.30;8.00;;;8.80;1.00;;;;;;4956080;29;20430;-81
2023/03/01 12:49:55;;;;;;;13.03;7.90;;;8.90;1.00;;;;;;4965925;28;20437;-80
2023/03/01 12:59:31;;;;;;;11.07;6.17;;;9.10;1.00;;;;;;5005857;28;20415;-80
2023/03/01 13:05:26;;;;;;;17.37;9.23;;;9.20;1.00;;;;;;5034402;28;20539;-80
2023/03/01 13:11:21;;;;;;;12.23;7.10;;;9.10;1.00;;;;;;5075486;28;20392;-80
2023/03/01 13:17:33;;;;;;;13.10;6.87;;;9.30;1.00;;;;;;5075418;28;20397;-80
2023/03/01 13:20:43;;;;;;;9.93;6.83;;;9.20;1.00;;;;;;5073813;28;20421;-80
2023/03/01 13:23:21;;;;;;;11.80;7.10;;;9.20;1.00;;;;;;5063955;28;20429;-81
2023/03/01 13:29:56;;;;;;;10.70;7.03;;;9.60;1.00;;;;;;5064865;28;20533;-80
2023/03/01 13:32:39;;;;;;;12.20;7.17;;;9.70;1.00;;;;;;5061136;28;20504;-79
2023/03/01 13:35:14;;;;;;;11.50;7.67;;;9.80;1.00;;;;;;5073954;28;20524;-75
2023/03/01 13:38:29;;;;;;;12.73;8.73;;;9.80;1.00;;;;;;5062239;28;20572;-80
2023/03/01 13:41:00;;;;;;;10.87;7.27;;;9.70;1.00;;;;;;5067062;28;20495;-80
2023/03/01 13:46:49;;;;;;;9.83;7.13;;;9.50;1.00;;;;;;5063797;28;20403;-81
2023/03/01 13:49:18;;;;;;;16.63;8.83;;;9.60;1.00;;;;;;5069829;28;20872;-80
2023/03/01 13:51:47;;;;;;;21.20;8.73;;;9.60;1.00;;;;;;5055464;28;20456;-80
2023/03/01 13:57:38;;;;;;;14.73;8.70;;;9.40;1.00;;;;;;5065512;28;20449;-80
2023/03/01 14:00:47;;;;;;;13.23;8.10;;;9.40;1.00;;;;;;5068683;28;20449;-77
2023/03/01 14:03:19;;;;;;;14.13;8.40;;;9.40;1.00;;;;;;5039294;28;20434;-81
2023/03/01 14:06:23;;;;;;;16.30;9.30;;;9.40;1.00;;;;;;5071952;28;20429;-85
2023/03/01 14:16:00;;;;;;;15.57;8.30;;;9.80;1.00;;;;;;5070914;28;20420;-76
2023/03/01 14:18:51;;;;;;;14.57;9.10;;;9.90;1.00;;;;;;5057097;28;20923;-77
2023/03/01 14:21:25;;;;;;;13.37;8.47;;;9.90;1.00;;;;;;5037368;28;20917;-76
2023/03/01 14:24:21;;;;;;;13.57;8.37;;;10.00;1.00;;;;;;5070183;28;20483;-76
2023/03/01 14:26:49;;;;;;;17.03;8.23;;;10.00;1.00;;;;;;5071379;28;20439;-76
2023/03/01 14:29:42;;;;;;;16.10;8.20;;;10.00;1.00;;;;;;5074060;28;20467;-77
2023/03/01 14:32:59;;;;;;;12.37;7.90;;;10.00;1.00;;;;;;5063510;28;20528;-77
2023/03/01 14:39:31;;;;;;;14.47;8.77;;;9.90;1.00;;;;;;5071487;28;21016;-80
2023/03/01 14:42:06;;;;;;;12.97;8.63;;;9.90;1.00;;;;;;5067468;28;20858;-79
2023/03/01 14:48:03;;;;;;;13.83;8.97;;;9.70;1.00;;;;;;5072335;28;20475;-80
2023/03/01 14:50:39;;;;;;;14.07;8.37;;;9.80;1.00;;;;;;5071264;28;20459;-80
2023/03/01 14:53:47;;;;;;;11.43;7.30;;;9.80;1.00;;;;;;5072648;28;20445;-77
2023/03/01 15:00:16;;;;;;;11.47;8.13;;;9.80;1.00;;;;;;5073277;28;20443;-77
2023/03/01 15:03:29;;;;;;;14.63;8.40;;;9.70;1.00;;;;;;5073362;28;20425;-76
2023/03/01 15:16:25;;;;;;;15.20;8.73;;;9.70;1.00;;;;;;5072851;28;20412;-78
2023/03/01 15:19:01;;;;;;;12.90;8.23;;;9.60;1.00;;;;;;5073471;28;20409;-79
2023/03/01 15:22:11;;;;;;;12.43;8.13;;;9.60;1.00;;;;;;5062833;28;20429;-79
2023/03/01 15:24:54;;;;;;;12.47;7.97;;;9.50;1.00;;;;;;5062923;28;20456;-79
2023/03/01 15:27:46;;;;;;;14.23;8.10;;;9.50;1.00;;;;;;5072646;28;20467;-78
2023/03/01 15:37:48;;;;;;;19.47;8.40;;;9.50;1.00;;;;;;5066853;28;20926;-75
2023/03/01 15:40:32;;;;;;;14.10;7.80;;;9.50;1.00;;;;;;5069370;28;20423;-75
2023/03/01 15:46:37;;;;;;;12.10;7.90;;;9.50;1.00;;;;;;5074206;28;20432;-75
2023/03/01 15:49:40;;;;;;;12.50;7.53;;;9.30;1.00;;;;;;5073384;28;20727;-75
2023/03/01 15:52:28;;;;;;;12.10;6.30;;;9.40;1.00;;;;;;5061080;28;20907;-77
2023/03/01 15:55:18;;;;;;;11.20;6.57;;;9.80;1.00;;;;;;5058166;28;20421;-77
2023/03/01 16:04:27;;;;;;;12.10;7.53;;;11.10;1.00;;;;;;5072174;28;20861;-80
2023/03/01 16:06:54;;;;;;;11.37;8.13;;;11.80;1.00;;;;;;5047411;28;20494;-79
2023/03/01 16:12:49;;;;;;;13.53;7.87;;;12.60;1.00;;;;;;5072070;28;20456;-77
2023/03/01 16:15:41;;;;;;;13.80;8.40;;;13.10;1.00;;;;;;5076561;28;20751;-77
2023/03/01 16:21:49;;;;;;;70.50;26.87;;;12.20;1.00;;;;;;5068763;28;20367;-81
2023/03/01 16:34:21;;;;;;;18.67;10.20;;;10.40;1.00;;;;;;5076611;28;20392;-81
2023/03/01 16:36:54;;;;;;;16.30;8.30;;;10.00;1.00;;;;;;5059238;28;20413;-76
2023/03/01 16:39:30;;;;;;;15.83;8.90;;;9.60;1.00;;;;;;5070026;28;20487;-76
2023/03/01 16:42:06;;;;;;;12.07;8.27;;;9.20;1.00;;;;;;5056024;28;20481;-76
2023/03/01 16:48:35;;;;;;;12.27;7.80;;;8.70;1.00;;;;;;5069439;28;20768;-76
2023/03/01 16:58:35;;;;;;;14.37;8.03;;;7.80;1.00;;;;;;5075711;28;20436;-76
2023/03/01 17:01:24;;;;;;;12.83;7.97;;;7.50;1.00;;;;;;5066635;28;20412;-76
2023/03/01 17:04:41;;;;;;;16.10;7.70;;;7.30;1.00;;;;;;5065627;28;20453;-76
2023/03/01 17:07:18;;;;;;;13.67;8.27;;;7.10;1.00;;;;;;5073759;28;20422;-76
2023/03/01 17:10:09;;;;;;;14.90;8.43;;;6.90;1.00;;;;;;5067512;28;20400;-76
2023/03/01 17:15:57;;;;;;;20.60;8.77;;;6.70;1.00;;;;;;5077293;28;20745;-76
2023/03/01 17:25:18;;;;;;;11.83;6.83;;;6.40;1.00;;;;;;5068792;28;20906;-75
2023/03/01 17:28:23;;;;;;;16.80;8.10;;;6.30;1.00;;;;;;5064643;28;20409;-75
2023/03/01 17:31:29;;;;;;;14.57;7.63;;;6.30;1.00;;;;;;5071302;28;20417;-75
2023/03/01 17:34:12;;;;;;;13.13;7.10;;;6.20;1.00;;;;;;5055948;28;20498;-76
2023/03/01 17:39:59;;;;;;;14.23;7.20;;;6.10;1.00;;;;;;5073258;28;20767;-76
2023/03/01 17:42:53;;;;;;;16.43;8.23;;;6.00;1.00;;;;;;5076000;28;20447;-76
2023/03/01 17:45:30;;;;;;;20.57;8.40;;;6.00;1.00;;;;;;5066747;28;20199;-77
2023/03/01 17:51:53;;;;;;;13.47;7.83;;;5.80;1.00;;;;;;5067908;28;20496;-79
2023/03/01 17:57:41;;;;;;;17.50;8.17;;;5.70;1.00;;;;;;5066732;28;20413;-75
2023/03/01 18:00:18;;;;;;;15.50;7.53;;;5.70;1.00;;;;;;5073810;28;20433;-75
2023/03/01 18:02:54;;;;;;;12.10;7.57;;;5.60;1.00;;;;;;5074669;28;20197;-75
2023/03/01 18:05:20;;;;;;;15.60;8.13;;;5.60;1.00;;;;;;5069584;28;20975;-76
2023/03/01 18:07:45;;;;;;;14.73;7.50;;;5.60;1.00;;;;;;5074325;28;20433;-79
2023/03/01 18:10:47;;;;;;;13.50;7.83;;;5.60;1.00;;;;;;5085071;28;20213;-79
2023/03/01 18:13:30;;;;;;;13.50;8.03;;;5.50;1.00;;;;;;5065643;28;20254;-78
2023/03/01 18:16:04;;;;;;;14.03;8.03;;;5.50;1.00;;;;;;5059793;28;20441;-75
2023/03/01 18:18:44;;;;;;;15.77;8.10;;;5.40;1.00;;;;;;5074048;28;20467;-75
2023/03/01 18:21:35;;;;;;;24.40;8.40;;;5.40;1.00;;;;;;5073821;28;20409;-75
2023/03/01 18:34:47;;;;;;;15.40;8.07;;;5.20;1.00;;;;;;5072695;28;20432;-79
2023/03/01 18:43:58;;;;;;;17.20;7.40;;;5.00;1.00;;;;;;5063799;28;20456;-79
2023/03/01 18:49:45;;;;;;;16.73;7.50;;;4.90;1.00;;;;;;5063158;28;20186;-79
2023/03/01 18:52:10;;;;;;;13.93;7.53;;;4.80;1.00;;;;;;5073694;28;20406;-79
2023/03/01 18:54:59;;;;;;;15.47;8.00;;;4.80;1.00;;;;;;5070209;28;20190;-79
2023/03/01 19:00:47;;;;;;;13.93;7.47;;;4.60;1.00;;;;;;5072857;28;20543;-80
2023/03/01 19:10:06;;;;;;;11.83;7.13;;;4.70;1.00;;;;;;5058643;28;20494;-80
2023/03/01 19:12:48;;;;;;;15.47;7.80;;;4.60;1.00;;;;;;5060156;28;20459;-78
2023/03/01 19:18:38;;;;;;;16.90;7.63;;;4.50;1.00;;;;;;5073954;28;20396;-85
2023/03/01 19:21:07;;;;;;;18.80;8.50;;;4.50;1.00;;;;;;5073542;28;20405;-75
2023/03/01 19:30:59;;;;;;;18.40;8.20;;;4.40;1.00;;;;;;5061807;28;20455;-80
2023/03/01 19:34:11;;;;;;;15.10;7.70;;;4.20;1.00;;;;;;5072165;28;20440;-80
2023/03/01 19:39:58;;;;;;;15.80;8.30;;;4.20;1.00;;;;;;5073355;28;20416;-74
2023/03/01 19:42:26;;;;;;;19.67;8.80;;;4.20;1.00;;;;;;5068499;28;20429;-74
2023/03/01 19:44:54;;;;;;;15.93;7.40;;;4.10;1.00;;;;;;5067422;28;20195;-74
2023/03/01 19:47:24;;;;;;;20.80;8.50;;;4.00;1.00;;;;;;5076952;28;20414;-74
2023/03/01 19:49:49;;;;;;;18.67;8.70;;;4.10;1.00;;;;;;5061538;28;20416;-74
2023/03/01 19:52:24;;;;;;;15.17;7.50;;;4.00;1.00;;;;;;5070683;28;20420;-74
2023/03/01 19:58:12;;;;;;;13.63;7.23;;;3.90;1.00;;;;;;5063865;28;21147;-80
2023/03/01 20:07:22;;;;;;;8.90;5.13;;;3.80;1.00;;;;;;5076732;28;20872;-80
2023/03/01 20:13:36;;;;;;;13.93;7.30;;;3.70;1.00;;;;;;5065274;28;20241;-80
2023/03/01 20:19:36;;;;;;;15.75;7.75;;;3.60;1.00;;;;;;5076778;28;20843;-80
2023/03/01 20:22:02;;;;;;;14.20;8.10;;;3.50;1.00;;;;;;5076397;28;20178;-81
2023/03/01 20:24:30;;;;;;;19.00;7.75;;;3.60;1.00;;;;;;5076239;28;20449;-73
2023/03/01 20:27:00;;;;;;;15.67;8.27;;;3.50;1.00;;;;;;5076381;28;20171;-74
2023/03/01 20:29:26;;;;;;;16.27;8.68;;;3.50;1.00;;;;;;5084171;28;20409;-74
2023/03/01 20:31:51;;;;;;;16.30;8.07;;;3.50;1.00;;;;;;5080228;28;20224;-75
2023/03/01 20:34:18;;;;;;;15.83;8.33;;;3.40;1.00;;;;;;5076304;28;20167;-74
2023/03/01 20:36:48;;;;;;;16.30;8.23;;;3.40;1.00;;;;;;5065915;28;20637;-73
2023/03/01 20:39:18;;;;;;;20.77;8.50;;;3.40;1.00;;;;;;5086107;28;20189;-74
2023/03/01 20:41:44;;;;;;;16.30;8.23;;;3.30;1.00;;;;;;5070553;28;20175;-74
2023/03/01 20:44:10;;;;;;;16.70;7.83;;;3.30;1.00;;;;;;5072764;28;20201;-74
2023/03/01 20:46:36;;;;;;;15.80;8.57;;;3.30;1.00;;;;;;5078649;28;20198;-74
2023/03/01 20:49:19;;;;;;;26.60;8.50;;;3.30;1.00;;;;;;5083553;28;20982;-74
2023/03/01 20:51:54;;;;;;;16.37;8.20;;;3.30;1.00;;;;;;5065824;28;20186;-74
2023/03/01 20:54:19;;;;;;;16.87;8.20;;;3.30;1.00;;;;;;5066738;28;20452;-74
2023/03/01 20:56:48;;;;;;;23.00;8.30;;;3.20;1.00;;;;;;5072915;28;20931;-74
2023/03/01 20:59:24;;;;;;;19.80;9.13;;;3.10;1.00;;;;;;5069505;28;20561;-74
2023/03/01 21:02:06;;;;;;;17.45;7.13;;;3.10;1.00;;;;;;5080267;28;20423;-74